Time;durP1;ratioP1;P1;durP2;ratioP2;P2;SDS_P1;SDS_P2;PMS_P1;PMS_P2;Temp;Humidity;BMP_temperature;BMP_pressure;BME280_temperature;BME280_humidity;BME280_pressure;Samples;Min_cycle;Max_cycle;Signal;HPM_P1;HPM_P2
2022/06/04 07:03:36;;;;;;;5.20;1.90;;;22.40;99.90;;;;;;5005975;28;20290;-68
2022/06/04 07:06:03;;;;;;;12.70;2.43;;;22.50;99.90;;;;;;5012032;28;20232;-72
2022/06/04 07:08:31;;;;;;;9.83;2.47;;;22.60;99.90;;;;;;5012904;28;20199;-72
2022/06/04 07:10:57;;;;;;;14.70;2.33;;;22.60;99.90;;;;;;5012295;28;20290;-71
2022/06/04 07:13:24;;;;;;;2.93;1.97;;;22.60;99.90;;;;;;5012761;28;20242;-71
2022/06/04 07:15:52;;;;;;;2.17;1.70;;;22.50;99.90;;;;;;5011985;28;20235;-71
2022/06/04 07:18:20;;;;;;;1.80;1.60;;;22.50;99.90;;;;;;5013095;28;20226;-72
2022/06/04 07:20:48;;;;;;;2.10;1.80;;;22.60;99.90;;;;;;5012826;28;20318;-71
2022/06/04 07:23:16;;;;;;;1.90;1.70;;;22.70;99.90;;;;;;5011869;28;20630;-70
2022/06/04 07:25:45;;;;;;;21.23;2.37;;;22.80;99.90;;;;;;5012418;28;20253;-71
2022/06/04 07:28:13;;;;;;;2.60;1.93;;;22.80;99.90;;;;;;5012773;28;20277;-72
2022/06/04 07:30:40;;;;;;;2.03;1.80;;;22.60;99.10;;;;;;5012146;28;20235;-70
2022/06/04 07:33:07;;;;;;;2.03;1.83;;;22.60;99.40;;;;;;5008118;28;20300;-73
2022/06/04 07:35:34;;;;;;;2.30;2.10;;;22.70;99.40;;;;;;5012067;28;20212;-72
2022/06/04 07:38:03;;;;;;;9.90;2.17;;;22.80;99.30;;;;;;5012033;28;20324;-72
2022/06/04 07:40:29;;;;;;;5.10;2.20;;;22.80;99.30;;;;;;5009720;28;20206;-70
2022/06/04 07:42:56;;;;;;;5.67;2.20;;;22.90;99.50;;;;;;5012037;28;20271;-71
2022/06/04 07:45:23;;;;;;;5.93;2.00;;;22.90;98.90;;;;;;5011977;28;20208;-70
2022/06/04 07:47:50;;;;;;;5.03;3.73;;;22.90;98.90;;;;;;5010438;28;20653;-71
2022/06/04 07:50:17;;;;;;;4.27;2.00;;;22.90;98.70;;;;;;5008546;28;20664;-72
2022/06/04 07:52:44;;;;;;;3.73;2.50;;;22.90;99.00;;;;;;5012525;28;20257;-72
2022/06/04 07:55:13;;;;;;;2.50;1.90;;;23.00;98.40;;;;;;5007269;28;20261;-71
2022/06/04 07:57:41;;;;;;;6.27;2.10;;;22.90;97.90;;;;;;5008801;28;20664;-64
2022/06/04 08:00:09;;;;;;;3.07;1.97;;;23.00;98.00;;;;;;5011755;28;20261;-65
2022/06/04 08:02:36;;;;;;;2.10;1.90;;;23.10;98.20;;;;;;4999169;28;20216;-66
2022/06/04 08:05:03;;;;;;;2.27;1.67;;;23.20;97.80;;;;;;5011719;28;20235;-65
2022/06/04 08:07:30;;;;;;;3.57;1.93;;;23.20;96.80;;;;;;5011424;28;20586;-66
2022/06/04 08:09:57;;;;;;;1.80;1.60;;;23.00;96.00;;;;;;5012066;28;20220;-67
2022/06/04 08:12:29;;;;;;;3.03;1.90;;;22.90;96.30;;;;;;5005644;28;20219;-67
2022/06/04 08:14:57;;;;;;;13.30;2.47;;;22.80;95.50;;;;;;5010299;28;20670;-67
2022/06/04 08:17:25;;;;;;;2.40;1.70;;;22.70;96.20;;;;;;5009841;28;20686;-68
2022/06/04 08:19:52;;;;;;;2.80;1.87;;;22.70;96.60;;;;;;5008132;28;20272;-66
2022/06/04 08:22:20;;;;;;;3.67;1.93;;;22.70;96.70;;;;;;5010956;28;20200;-65
2022/06/04 08:24:48;;;;;;;5.60;1.80;;;22.70;96.10;;;;;;5011090;28;20206;-67
2022/06/04 08:27:16;;;;;;;9.57;2.90;;;22.60;95.60;;;;;;5010007;28;20200;-67
2022/06/04 08:29:45;;;;;;;3.47;3.00;;;22.60;96.70;;;;;;5010882;28;20295;-65
2022/06/04 08:32:14;;;;;;;5.73;2.30;;;22.60;96.50;;;;;;5008174;28;20206;-66
2022/06/04 08:34:41;;;;;;;2.07;1.83;;;22.60;95.70;;;;;;5011312;28;20214;-72
2022/06/04 08:37:07;;;;;;;2.60;1.70;;;22.70;95.60;;;;;;5011584;28;20611;-74
2022/06/04 08:39:35;;;;;;;2.30;1.80;;;22.70;95.50;;;;;;5005174;28;20291;-76
2022/06/04 08:42:17;;;;;;;2.37;1.90;;;22.70;95.20;;;;;;5011406;28;20759;-74
2022/06/04 08:44:49;;;;;;;3.60;1.93;;;22.60;94.50;;;;;;5011444;28;20196;-71
2022/06/04 08:47:20;;;;;;;3.57;2.10;;;22.60;94.10;;;;;;4999626;28;20204;-69
2022/06/04 08:49:49;;;;;;;4.53;2.30;;;22.60;94.30;;;;;;4998886;28;20211;-72
2022/06/04 08:52:19;;;;;;;4.03;2.33;;;22.60;93.70;;;;;;5003352;28;20297;-63
2022/06/04 08:57:40;;;;;;;57.10;5.20;;;22.60;93.80;;;;;;5011401;28;20217;-70
2022/06/04 09:00:19;;;;;;;2.60;2.03;;;22.60;94.20;;;;;;5009836;28;20304;-75
2022/06/04 09:02:59;;;;;;;2.77;2.20;;;22.60;93.60;;;;;;5003286;28;20786;-73
2022/06/04 09:05:35;;;;;;;2.03;1.83;;;22.70;93.90;;;;;;4992509;28;20736;-69
2022/06/04 09:08:06;;;;;;;2.53;2.17;;;22.70;95.10;;;;;;4991487;28;20708;-70
2022/06/04 09:10:39;;;;;;;22.03;3.27;;;22.70;95.40;;;;;;4991832;28;20216;-67
2022/06/04 09:13:14;;;;;;;7.67;4.47;;;22.60;96.50;;;;;;5002501;28;20226;-70
2022/06/04 09:15:46;;;;;;;4.13;3.33;;;22.60;96.50;;;;;;5005848;28;20625;-76
2022/06/04 09:18:17;;;;;;;2.87;2.57;;;22.60;95.70;;;;;;5000418;28;20314;-68
2022/06/04 09:20:46;;;;;;;2.67;2.47;;;22.50;95.90;;;;;;5011070;28;20282;-70
2022/06/04 09:23:22;;;;;;;3.77;2.30;;;22.60;95.80;;;;;;5010906;28;20195;-71
2022/06/04 09:25:55;;;;;;;4.43;2.77;;;22.70;95.30;;;;;;5010572;28;20208;-70
2022/06/04 09:28:31;;;;;;;4.27;2.97;;;22.90;95.60;;;;;;5010473;28;20183;-72
2022/06/04 09:31:11;;;;;;;5.17;2.40;;;23.00;96.00;;;;;;5012811;28;20277;-69
2022/06/04 09:33:53;;;;;;;2.73;2.30;;;23.10;95.10;;;;;;5013952;28;20239;-69
2022/06/04 09:36:25;;;;;;;3.10;2.20;;;23.10;94.00;;;;;;5013799;28;20551;-70
2022/06/04 09:38:59;;;;;;;5.60;2.13;;;23.10;94.50;;;;;;5013905;28;20210;-72
2022/06/04 09:41:29;;;;;;;4.60;2.10;;;23.20;94.00;;;;;;5011814;28;20193;-74
2022/06/04 09:44:07;;;;;;;4.07;2.20;;;23.30;93.50;;;;;;5014291;28;20228;-77
2022/06/04 09:46:36;;;;;;;2.93;2.50;;;23.30;93.40;;;;;;5013386;28;20201;-70
2022/06/04 09:49:19;;;;;;;8.30;2.93;;;23.30;93.40;;;;;;4999358;28;20673;-74
2022/06/04 09:51:47;;;;;;;3.37;2.70;;;23.50;92.90;;;;;;5006818;28;20765;-72
2022/06/04 09:54:23;;;;;;;5.30;2.53;;;23.50;93.00;;;;;;5014115;28;20259;-76
2022/06/04 09:56:54;;;;;;;2.50;2.30;;;23.60;92.10;;;;;;5013882;28;20280;-73
2022/06/04 09:59:24;;;;;;;4.23;2.60;;;23.60;91.80;;;;;;5012895;28;20291;-73
2022/06/04 10:02:00;;;;;;;12.10;3.20;;;23.60;92.90;;;;;;5014157;28;20241;-73
2022/06/04 10:04:38;;;;;;;3.47;2.50;;;23.60;93.00;;;;;;5013945;28;20272;-73
2022/06/04 10:07:07;;;;;;;9.33;6.83;;;23.70;92.30;;;;;;5014682;28;20632;-74
2022/06/04 10:09:56;;;;;;;3.43;2.90;;;23.60;91.90;;;;;;5014079;28;20654;-73
2022/06/04 10:15:19;;;;;;;16.43;3.17;;;23.60;92.20;;;;;;5013303;28;20292;-74
2022/06/04 10:18:00;;;;;;;3.37;2.30;;;23.60;92.10;;;;;;5013683;28;20341;-74
2022/06/04 10:20:27;;;;;;;2.10;1.90;;;23.70;92.60;;;;;;5013531;28;20409;-72
2022/06/04 10:22:54;;;;;;;4.50;2.23;;;23.80;92.90;;;;;;5013931;28;20209;-73
2022/06/04 10:25:24;;;;;;;2.93;1.93;;;23.90;93.50;;;;;;5013572;28;20304;-73
2022/06/04 10:28:02;;;;;;;3.23;2.10;;;24.10;93.90;;;;;;5013934;28;20263;-73
2022/06/04 10:30:34;;;;;;;3.60;2.30;;;24.10;92.10;;;;;;5013338;28;20261;-73
2022/06/04 10:33:14;;;;;;;3.63;2.13;;;24.20;92.20;;;;;;5013390;28;20204;-73
2022/06/04 10:36:10;;;;;;;2.90;2.47;;;24.20;91.90;;;;;;5013935;28;20380;-73
2022/06/04 10:38:49;;;;;;;4.37;3.30;;;24.30;92.00;;;;;;5013431;28;20296;-73
2022/06/04 10:41:26;;;;;;;4.53;3.20;;;24.40;92.00;;;;;;5013333;28;20629;-74
2022/06/04 10:44:27;;;;;;;2.40;2.20;;;24.50;91.90;;;;;;5013472;28;20203;-75
2022/06/04 10:47:07;;;;;;;6.40;3.03;;;24.50;91.40;;;;;;5013938;28;20637;-73
2022/06/04 10:50:03;;;;;;;8.17;3.07;;;24.60;91.80;;;;;;5013609;28;20193;-74
2022/06/04 10:52:39;;;;;;;9.27;3.70;;;24.60;91.90;;;;;;5013504;28;20197;-75
2022/06/04 10:55:16;;;;;;;9.83;3.00;;;24.80;92.00;;;;;;5013184;28;20221;-72
2022/06/04 10:57:49;;;;;;;7.83;2.93;;;24.80;91.90;;;;;;5013492;28;20197;-73
2022/06/04 11:00:20;;;;;;;4.93;2.43;;;24.90;91.00;;;;;;5013597;28;20219;-75
2022/06/04 11:02:53;;;;;;;3.03;2.20;;;24.90;91.00;;;;;;5012892;28;20313;-73
2022/06/04 11:05:26;;;;;;;8.70;3.03;;;25.00;90.70;;;;;;5012960;28;20778;-74
2022/06/04 11:07:59;;;;;;;4.97;2.60;;;25.10;90.30;;;;;;5012953;28;20195;-74
2022/06/04 12:03:31;;;;;;;3.17;2.00;;;24.50;89.50;;;;;;5089065;28;20531;-74
2022/06/04 12:06:03;;;;;;;2.35;2.15;;;25.60;86.50;;;;;;5088935;28;20778;-71
2022/06/04 12:08:35;;;;;;;3.55;2.13;;;25.50;84.80;;;;;;5089288;28;20603;-72
2022/06/04 12:11:16;;;;;;;2.77;2.30;;;25.50;84.10;;;;;;5089033;28;20190;-71
2022/06/04 12:13:54;;;;;;;2.70;2.03;;;25.30;84.90;;;;;;5089323;28;20643;-72
2022/06/04 12:16:27;;;;;;;4.93;2.10;;;25.40;85.50;;;;;;5093330;28;20217;-73
2022/06/04 12:19:00;;;;;;;4.07;2.17;;;25.50;87.10;;;;;;5090688;28;20201;-73
2022/06/04 12:24:37;;;;;;;3.20;2.10;;;25.40;85.20;;;;;;5092104;28;20185;-74
2022/06/04 12:27:20;;;;;;;8.30;2.23;;;25.30;85.50;;;;;;5090838;28;20628;-74
2022/06/04 12:29:49;;;;;;;2.23;1.90;;;25.30;86.20;;;;;;5092205;28;20199;-75
2022/06/04 12:32:29;;;;;;;3.33;2.20;;;25.30;86.10;;;;;;5091326;28;20241;-74
2022/06/04 12:35:19;;;;;;;5.73;2.20;;;25.40;86.80;;;;;;5089251;28;20196;-71
2022/06/04 12:37:48;;;;;;;3.23;2.40;;;25.30;86.10;;;;;;5089615;28;20277;-73
2022/06/04 12:40:28;;;;;;;5.90;4.23;;;25.30;86.10;;;;;;5088631;28;20203;-72
2022/06/04 12:43:01;;;;;;;3.30;2.30;;;25.20;85.60;;;;;;5088909;28;20246;-73
2022/06/04 12:45:38;;;;;;;3.23;1.80;;;25.10;87.10;;;;;;5088959;28;20227;-70
2022/06/04 12:48:24;;;;;;;4.20;2.07;;;25.20;87.10;;;;;;5089218;28;20531;-73
2022/06/04 12:51:00;;;;;;;4.30;2.27;;;25.30;86.00;;;;;;5088706;28;20191;-74
2022/06/04 12:53:29;;;;;;;4.90;2.57;;;25.30;88.80;;;;;;5088834;28;20310;-72
2022/06/04 12:55:59;;;;;;;2.50;2.03;;;25.30;86.90;;;;;;5088738;28;20204;-71
2022/06/04 12:58:33;;;;;;;3.77;2.30;;;25.30;86.90;;;;;;5089263;28;20293;-72
2022/06/04 13:01:02;;;;;;;10.00;2.90;;;25.40;87.00;;;;;;5088342;28;20199;-72
2022/06/04 13:03:35;;;;;;;4.73;2.30;;;25.40;87.40;;;;;;5081148;28;20390;-73
2022/06/04 13:06:32;;;;;;;2.37;2.10;;;25.40;85.90;;;;;;5075527;28;20571;-72
2022/06/04 13:09:04;;;;;;;3.97;2.40;;;25.40;84.90;;;;;;5075167;28;20302;-74
2022/06/04 13:12:09;;;;;;;3.55;2.40;;;25.30;85.10;;;;;;5075846;28;20223;-71
2022/06/04 13:14:44;;;;;;;2.53;2.20;;;25.20;87.10;;;;;;5075584;28;20191;-73
2022/06/04 13:17:28;;;;;;;5.00;2.17;;;25.30;86.30;;;;;;5075044;28;20629;-72
2022/06/04 13:20:25;;;;;;;2.30;2.10;;;25.20;84.70;;;;;;5074822;28;20703;-72
2022/06/04 13:22:56;;;;;;;20.57;6.23;;;25.30;84.50;;;;;;5071808;28;20700;-70
2022/06/04 13:25:29;;;;;;;4.53;2.60;;;25.30;85.00;;;;;;5074638;28;20202;-73
2022/06/04 13:27:56;;;;;;;6.60;3.57;;;25.30;85.30;;;;;;5074185;28;20202;-70
2022/06/04 13:30:26;;;;;;;4.20;3.40;;;25.40;85.70;;;;;;5074841;28;20299;-73
2022/06/04 13:32:59;;;;;;;2.50;2.07;;;25.50;85.00;;;;;;5074648;28;20649;-71
2022/06/04 13:35:31;;;;;;;3.67;2.10;;;25.50;84.70;;;;;;5074397;28;20195;-71
2022/06/04 13:38:02;;;;;;;5.00;2.30;;;25.50;84.20;;;;;;5074999;28;20248;-71
2022/06/04 13:40:32;;;;;;;2.33;1.90;;;25.60;84.20;;;;;;5074828;28;20192;-72
2022/06/04 13:43:01;;;;;;;3.08;2.22;;;25.70;84.80;;;;;;5075238;28;20274;-71
2022/06/04 13:45:31;;;;;;;2.25;2.05;;;25.70;85.00;;;;;;5074860;28;20222;-72
2022/06/04 13:48:00;;;;;;;5.85;2.15;;;25.60;83.90;;;;;;5074693;28;20292;-72
2022/06/04 13:50:30;;;;;;;2.40;2.08;;;25.60;84.60;;;;;;5075175;28;20257;-72
2022/06/04 13:53:01;;;;;;;12.57;4.38;;;25.70;84.00;;;;;;5075073;28;20590;-72
2022/06/04 13:55:35;;;;;;;6.95;2.80;;;25.70;84.40;;;;;;5074201;28;20203;-73
2022/06/04 13:58:08;;;;;;;5.13;2.30;;;25.70;84.20;;;;;;5074230;28;20679;-72
2022/06/04 14:00:37;;;;;;;4.45;2.10;;;25.80;85.00;;;;;;5073952;28;20188;-70
2022/06/04 14:03:13;;;;;;;2.17;1.97;;;25.70;84.90;;;;;;5073715;28;20235;-72
2022/06/04 14:05:46;;;;;;;2.47;2.03;;;25.60;86.40;;;;;;5074070;28;20696;-72
2022/06/04 14:08:16;;;;;;;3.80;2.10;;;25.40;85.10;;;;;;5074376;28;20243;-71
2022/06/04 14:11:07;;;;;;;6.50;2.33;;;25.40;85.30;;;;;;5073222;28;20528;-69
2022/06/04 14:13:58;;;;;;;2.80;2.10;;;25.40;84.60;;;;;;5057623;28;20643;-70
2022/06/04 14:16:40;;;;;;;3.47;2.20;;;25.40;85.00;;;;;;5052909;28;20253;-70
2022/06/04 14:19:27;;;;;;;2.17;1.90;;;25.20;84.60;;;;;;5059614;28;20189;-68
2022/06/04 14:22:05;;;;;;;6.87;3.40;;;25.30;85.40;;;;;;5051884;28;20212;-67
2022/06/04 14:24:48;;;;;;;3.40;2.27;;;25.30;84.50;;;;;;5056647;28;20300;-69
2022/06/04 14:27:25;;;;;;;2.73;2.13;;;25.30;84.90;;;;;;5052874;28;20357;-68
2022/06/04 14:30:03;;;;;;;3.13;2.00;;;25.20;85.20;;;;;;5059371;28;20839;-69
2022/06/04 14:32:38;;;;;;;5.03;2.70;;;25.30;85.80;;;;;;5052550;28;20634;-70
2022/06/04 14:35:17;;;;;;;4.20;2.70;;;25.30;85.10;;;;;;5052656;28;20195;-70
2022/06/04 14:37:46;;;;;;;5.30;2.63;;;25.30;85.10;;;;;;5052250;28;20279;-68
2022/06/04 14:40:16;;;;;;;4.70;2.80;;;25.30;85.10;;;;;;5065903;28;20634;-70
2022/06/04 14:43:19;;;;;;;3.67;2.53;;;25.10;84.60;;;;;;5066321;28;20221;-70
2022/06/04 14:46:02;;;;;;;4.93;2.50;;;25.00;85.00;;;;;;5056960;28;20299;-69
2022/06/04 14:49:01;;;;;;;6.95;2.92;;;24.90;87.10;;;;;;5053838;28;20294;-70
2022/06/04 14:51:54;;;;;;;5.17;3.40;;;24.80;86.50;;;;;;5055754;28;20285;-71
2022/06/04 14:54:22;;;;;;;5.53;2.67;;;24.80;86.50;;;;;;5043608;28;20576;-71
2022/06/04 14:57:01;;;;;;;2.80;2.40;;;24.80;85.80;;;;;;5052080;28;20202;-70
2022/06/04 14:59:54;;;;;;;11.10;2.90;;;24.80;85.50;;;;;;5052003;28;20308;-70
2022/06/04 15:02:32;;;;;;;5.80;2.90;;;24.90;85.90;;;;;;5052691;28;20255;-71
2022/06/04 15:05:20;;;;;;;8.03;2.50;;;24.90;86.40;;;;;;5052792;28;20187;-73
2022/06/04 15:08:16;;;;;;;4.97;2.63;;;24.80;86.60;;;;;;5051403;28;20241;-75
2022/06/04 15:10:51;;;;;;;3.67;2.20;;;24.70;86.30;;;;;;5051818;28;20298;-70
2022/06/04 15:13:31;;;;;;;4.63;2.10;;;24.70;86.10;;;;;;5051560;28;20191;-71
2022/06/04 15:16:08;;;;;;;11.37;2.63;;;24.60;86.80;;;;;;5051602;28;20603;-70
2022/06/04 15:19:11;;;;;;;4.47;2.10;;;24.60;87.60;;;;;;5049677;28;20197;-69
2022/06/04 15:21:49;;;;;;;5.77;2.00;;;24.60;87.70;;;;;;5037925;28;20240;-72
2022/06/04 15:24:33;;;;;;;4.00;2.10;;;24.60;86.20;;;;;;5050901;28;20299;-71
2022/06/04 15:27:10;;;;;;;8.20;2.30;;;24.60;86.40;;;;;;5051417;28;20199;-70
2022/06/04 15:35:24;;;;;;;6.10;3.37;;;24.40;86.30;;;;;;5050614;28;20215;-69
2022/06/04 15:37:59;;;;;;;3.20;2.40;;;24.30;87.60;;;;;;5057809;28;20211;-69
2022/06/04 15:40:27;;;;;;;2.20;2.00;;;24.20;90.00;;;;;;5060092;28;20198;-70
2022/06/04 15:43:01;;;;;;;2.30;2.10;;;24.10;88.70;;;;;;5058306;28;20200;-69
2022/06/04 15:45:32;;;;;;;5.27;2.37;;;24.00;88.50;;;;;;5060340;28;20193;-70
2022/06/04 15:48:10;;;;;;;5.93;2.30;;;24.10;88.60;;;;;;5062560;28;20283;-69
2022/06/04 15:56:28;;;;;;;2.30;2.07;;;24.20;88.80;;;;;;5055914;28;20411;-69
2022/06/04 15:58:58;;;;;;;3.67;2.20;;;24.20;89.20;;;;;;5070829;28;20203;-74
2022/06/04 16:01:55;;;;;;;3.37;1.97;;;24.20;89.20;;;;;;5069097;28;20231;-70
2022/06/04 16:04:41;;;;;;;3.53;2.30;;;24.10;88.90;;;;;;5062373;28;20299;-73
2022/06/04 16:07:30;;;;;;;3.07;2.13;;;24.10;89.30;;;;;;5064464;28;20223;-72
2022/06/04 16:10:17;;;;;;;2.40;1.97;;;23.90;89.10;;;;;;5052043;28;20804;-69
2022/06/04 16:13:08;;;;;;;2.30;2.00;;;23.90;88.40;;;;;;5050279;28;20243;-68
2022/06/04 16:15:47;;;;;;;2.17;1.83;;;23.90;88.20;;;;;;5050228;28;20239;-70
2022/06/04 16:18:28;;;;;;;3.83;2.10;;;23.90;88.20;;;;;;5051280;28;20670;-72
2022/06/04 16:21:03;;;;;;;3.13;1.93;;;23.90;87.60;;;;;;5062740;28;20551;-72
2022/06/04 16:23:37;;;;;;;3.20;1.97;;;23.80;88.40;;;;;;5073941;28;20196;-72
2022/06/04 16:26:29;;;;;;;13.33;3.17;;;23.70;88.50;;;;;;5069833;28;20220;-71
2022/06/04 16:28:59;;;;;;;5.73;2.40;;;23.60;89.00;;;;;;5049925;28;20190;-73
2022/06/04 16:31:29;;;;;;;9.40;2.43;;;23.60;89.30;;;;;;5047699;28;20202;-70
2022/06/04 16:34:01;;;;;;;2.37;2.13;;;23.60;89.20;;;;;;5057747;28;20573;-69
2022/06/04 16:36:47;;;;;;;7.03;2.23;;;23.60;90.10;;;;;;5062047;28;20194;-70
2022/06/04 16:39:16;;;;;;;2.87;2.30;;;23.40;90.60;;;;;;5059489;28;20190;-67
2022/06/04 16:41:56;;;;;;;2.60;2.20;;;23.40;90.50;;;;;;5074290;28;20260;-72
2022/06/04 16:44:33;;;;;;;3.00;2.00;;;23.30;90.60;;;;;;5079748;28;20277;-70
2022/06/04 16:47:26;;;;;;;2.80;2.17;;;23.20;91.10;;;;;;5055167;28;20713;-69
2022/06/04 16:49:59;;;;;;;5.13;2.17;;;23.10;91.30;;;;;;5054580;28;20297;-69
2022/06/04 16:52:28;;;;;;;6.37;2.20;;;23.00;91.20;;;;;;5062783;28;20901;-68
2022/06/04 16:54:59;;;;;;;3.47;2.70;;;23.00;91.30;;;;;;5065583;28;20631;-70
2022/06/04 16:57:26;;;;;;;3.97;2.50;;;23.00;91.30;;;;;;5063004;28;20631;-68
2022/06/04 16:59:54;;;;;;;2.30;2.10;;;22.90;91.90;;;;;;5062354;28;20263;-69
2022/06/04 17:02:53;;;;;;;3.10;2.17;;;22.80;92.00;;;;;;5053805;28;20264;-71
2022/06/04 17:05:41;;;;;;;2.50;2.20;;;22.70;92.20;;;;;;5071260;28;20235;-71
2022/06/04 17:08:18;;;;;;;4.03;2.17;;;22.60;92.00;;;;;;5053865;28;20710;-72
2022/06/04 17:10:51;;;;;;;5.10;2.90;;;22.50;92.60;;;;;;5054599;28;20558;-71
2022/06/04 17:13:26;;;;;;;4.57;2.40;;;22.30;92.60;;;;;;5060051;28;20738;-71
2022/06/04 17:16:07;;;;;;;2.57;2.10;;;22.30;92.70;;;;;;5065700;28;20279;-72
2022/06/04 17:19:12;;;;;;;7.23;2.17;;;22.20;92.70;;;;;;5060244;28;20284;-71
2022/06/04 17:21:51;;;;;;;2.20;2.00;;;22.10;92.70;;;;;;5055191;28;20556;-71
2022/06/04 17:24:29;;;;;;;4.50;2.30;;;22.00;92.80;;;;;;5055950;28;20189;-69
2022/06/04 17:27:08;;;;;;;5.07;2.10;;;21.90;93.30;;;;;;5056023;28;20217;-74
2022/06/04 17:30:03;;;;;;;2.23;1.90;;;21.80;93.00;;;;;;5058709;28;20514;-72
2022/06/04 17:32:40;;;;;;;8.50;2.40;;;21.70;93.10;;;;;;5065549;28;20232;-72
2022/06/04 17:35:19;;;;;;;8.27;2.33;;;21.60;92.90;;;;;;5065797;28;20193;-72
2022/06/04 17:38:04;;;;;;;12.33;2.30;;;21.50;93.00;;;;;;5065182;28;20193;-73
2022/06/04 17:40:35;;;;;;;10.17;2.73;;;21.40;93.70;;;;;;5069417;28;20693;-72
2022/06/04 17:43:04;;;;;;;10.57;3.13;;;21.30;93.50;;;;;;5079302;28;20213;-69
2022/06/04 17:45:31;;;;;;;3.03;2.37;;;21.30;93.70;;;;;;5067661;28;20239;-72
2022/06/04 17:47:58;;;;;;;3.17;2.00;;;21.20;93.70;;;;;;5080394;28;20236;-73
2022/06/04 17:50:26;;;;;;;4.30;2.70;;;21.20;93.70;;;;;;5066616;28;20208;-71
2022/06/04 17:52:56;;;;;;;4.47;2.57;;;21.10;93.70;;;;;;5078334;28;20221;-70
2022/06/04 17:55:23;;;;;;;2.50;1.80;;;21.10;94.20;;;;;;5064610;28;20681;-71
2022/06/04 17:57:50;;;;;;;2.60;2.00;;;21.00;94.20;;;;;;5063157;28;20207;-70
2022/06/04 18:00:22;;;;;;;2.77;2.10;;;20.90;94.40;;;;;;5063179;28;20390;-74
2022/06/04 18:02:52;;;;;;;2.63;2.00;;;20.80;94.50;;;;;;5068350;28;20228;-74
2022/06/04 18:05:22;;;;;;;4.47;2.20;;;20.70;94.60;;;;;;5054218;28;20365;-73
2022/06/04 18:07:50;;;;;;;5.93;2.20;;;20.60;94.80;;;;;;5054518;28;20206;-74
2022/06/04 18:10:19;;;;;;;7.43;2.53;;;20.60;94.90;;;;;;5054473;28;20195;-72
2022/06/04 18:12:46;;;;;;;4.40;2.30;;;20.60;95.00;;;;;;5055746;28;20271;-73
2022/06/04 18:15:14;;;;;;;4.50;2.63;;;20.50;95.00;;;;;;5055957;28;20236;-73
2022/06/04 18:17:41;;;;;;;3.87;2.07;;;20.50;95.10;;;;;;5058105;28;20194;-71
2022/06/04 18:20:10;;;;;;;3.73;2.20;;;20.50;95.40;;;;;;5069478;28;20230;-73
2022/06/04 18:22:37;;;;;;;8.27;6.07;;;20.50;95.10;;;;;;5061951;28;20284;-71
2022/06/04 18:25:07;;;;;;;6.57;4.70;;;20.50;95.50;;;;;;5064791;28;20227;-69
2022/06/04 18:27:36;;;;;;;4.93;2.40;;;20.50;95.10;;;;;;5066036;28;20198;-72
2022/06/04 18:30:04;;;;;;;4.53;2.53;;;20.50;95.20;;;;;;5066670;28;20615;-69
2022/06/04 18:32:32;;;;;;;3.40;2.70;;;20.40;95.20;;;;;;5063870;28;20201;-70
2022/06/04 18:34:59;;;;;;;5.13;3.20;;;20.40;95.20;;;;;;5060811;28;20218;-74
2022/06/04 18:37:26;;;;;;;3.80;3.00;;;20.40;95.20;;;;;;5056287;28;20235;-69
2022/06/04 18:39:53;;;;;;;5.93;3.30;;;20.40;95.20;;;;;;5068551;28;20209;-67
2022/06/04 18:56:08;;;;;;;4.47;2.63;;;20.20;95.30;;;;;;5059431;28;20211;-69
2022/06/04 18:58:37;;;;;;;3.47;2.67;;;20.20;95.40;;;;;;5077074;28;20209;-69
2022/06/04 19:01:06;;;;;;;5.13;2.40;;;20.20;95.40;;;;;;5070155;28;20209;-70
2022/06/04 19:03:33;;;;;;;20.53;3.27;;;20.20;95.30;;;;;;5070663;28;20181;-70
2022/06/04 19:06:01;;;;;;;4.13;2.73;;;20.20;95.10;;;;;;5057349;28;20203;-70
2022/06/04 19:08:28;;;;;;;6.50;3.50;;;20.20;95.10;;;;;;5064334;28;20193;-71
2022/06/04 19:13:46;;;;;;;6.13;3.08;;;20.10;95.10;;;;;;5066735;28;20936;-72
2022/06/04 19:16:21;;;;;;;3.50;2.60;;;20.20;95.20;;;;;;5055684;28;20713;-72
2022/06/04 19:18:52;;;;;;;4.37;2.80;;;20.10;95.00;;;;;;5054005;28;20205;-71
2022/06/04 19:26:49;;;;;;;4.73;2.80;;;20.00;94.90;;;;;;5050461;28;20562;-70
2022/06/04 19:29:17;;;;;;;11.20;2.80;;;20.00;95.00;;;;;;5065920;28;20319;-69
2022/06/04 19:31:46;;;;;;;8.23;3.00;;;20.00;95.10;;;;;;5071865;28;20639;-69
2022/06/04 19:34:13;;;;;;;4.53;3.00;;;20.00;95.10;;;;;;5062471;28;20737;-68
2022/06/04 19:36:40;;;;;;;4.40;3.03;;;19.90;95.10;;;;;;5051761;28;20201;-72
2022/06/04 19:39:09;;;;;;;3.77;2.67;;;19.90;95.20;;;;;;5052255;28;20289;-70
2022/06/04 19:41:36;;;;;;;4.77;2.80;;;19.90;95.40;;;;;;5078426;28;20240;-69
2022/06/04 19:44:04;;;;;;;4.03;3.00;;;19.80;95.50;;;;;;5050663;28;20282;-71
2022/06/04 19:46:31;;;;;;;3.63;2.80;;;19.80;95.60;;;;;;5050857;28;20291;-70
2022/06/04 19:49:00;;;;;;;6.63;2.93;;;19.80;95.70;;;;;;5050605;28;20212;-70
2022/06/04 19:51:27;;;;;;;4.13;3.10;;;19.80;95.70;;;;;;5050690;28;20209;-71
2022/06/04 19:56:38;;;;;;;4.33;2.40;;;19.70;95.60;;;;;;5050974;28;20670;-69
2022/06/04 19:59:05;;;;;;;5.43;3.00;;;19.70;95.70;;;;;;5049806;28;20209;-69
2022/06/04 20:01:32;;;;;;;7.33;3.37;;;19.70;95.90;;;;;;5051550;28;20641;-70
2022/06/04 20:04:00;;;;;;;9.10;3.00;;;19.70;95.90;;;;;;5060948;28;20286;-69
2022/06/04 20:06:28;;;;;;;5.53;2.80;;;19.60;96.00;;;;;;5071175;28;20679;-70
2022/06/04 20:08:55;;;;;;;5.10;2.57;;;19.50;96.10;;;;;;5053804;28;20205;-69
2022/06/04 20:11:22;;;;;;;4.73;2.97;;;19.50;96.20;;;;;;5051985;28;20315;-71
2022/06/04 20:13:50;;;;;;;4.33;2.73;;;19.50;96.20;;;;;;5057045;28;20729;-69
2022/06/04 20:16:17;;;;;;;5.77;3.40;;;19.40;96.30;;;;;;5054586;28;20212;-69
2022/06/04 20:18:44;;;;;;;3.33;2.70;;;19.40;96.40;;;;;;5059004;28;20212;-70
2022/06/04 20:21:15;;;;;;;2.80;2.50;;;19.40;96.30;;;;;;5083141;28;20206;-69
2022/06/04 20:23:43;;;;;;;9.90;3.23;;;19.40;96.30;;;;;;5055236;28;20260;-72
2022/06/04 20:26:10;;;;;;;3.23;2.63;;;19.40;96.20;;;;;;5068936;28;20283;-69
2022/06/04 20:28:38;;;;;;;3.60;2.90;;;19.40;96.20;;;;;;5082611;28;20706;-69
2022/06/04 20:31:05;;;;;;;3.80;2.83;;;19.30;96.20;;;;;;5075035;28;20214;-71
2022/06/04 20:33:34;;;;;;;3.00;2.50;;;19.30;96.20;;;;;;5074722;28;20593;-70
2022/06/04 20:36:01;;;;;;;3.47;2.70;;;19.30;96.30;;;;;;5074549;28;20265;-70
2022/06/04 20:38:30;;;;;;;3.53;2.90;;;19.30;96.30;;;;;;5074780;28;20223;-72
2022/06/04 20:41:02;;;;;;;9.57;6.10;;;19.20;96.60;;;;;;5070194;28;20243;-73
2022/06/04 20:43:30;;;;;;;5.77;4.50;;;19.20;97.10;;;;;;5063372;28;20201;-68
2022/06/04 20:46:03;;;;;;;7.20;3.80;;;19.20;97.40;;;;;;5070141;28;20301;-63
2022/06/04 20:48:31;;;;;;;5.90;3.63;;;19.10;98.00;;;;;;5073596;28;20227;-64
2022/06/04 20:50:58;;;;;;;4.67;3.70;;;19.00;98.10;;;;;;5072758;28;20251;-62
2022/06/04 20:53:25;;;;;;;5.77;3.50;;;18.90;97.80;;;;;;5073959;28;20310;-63
2022/06/04 20:55:53;;;;;;;7.90;3.67;;;18.90;97.70;;;;;;5067395;28;20210;-66
2022/06/04 20:58:20;;;;;;;5.00;3.33;;;18.90;97.60;;;;;;5054947;28;20300;-64
2022/06/04 21:00:48;;;;;;;7.60;3.60;;;18.80;97.60;;;;;;5061284;28;20209;-64
2022/06/04 21:03:15;;;;;;;6.17;3.83;;;18.70;97.70;;;;;;5053989;28;20264;-62
2022/06/04 21:05:42;;;;;;;5.90;3.87;;;18.70;97.80;;;;;;5053429;28;20204;-64
2022/06/04 21:08:09;;;;;;;8.70;4.33;;;18.60;98.00;;;;;;5054166;28;20663;-64
2022/06/04 21:10:37;;;;;;;7.40;4.10;;;18.50;98.20;;;;;;5053324;28;20207;-64
2022/06/04 21:13:05;;;;;;;7.40;4.53;;;18.40;98.80;;;;;;5054617;28;20578;-64
2022/06/04 21:15:34;;;;;;;9.83;5.07;;;18.40;98.80;;;;;;5065669;28;20223;-63
2022/06/04 21:18:01;;;;;;;8.03;4.90;;;18.30;99.40;;;;;;5053912;28;20216;-65
2022/06/04 21:20:29;;;;;;;7.53;4.33;;;18.20;99.60;;;;;;5064939;28;20290;-66
2022/06/04 21:22:56;;;;;;;7.80;4.23;;;18.20;99.50;;;;;;5073243;28;20305;-64
2022/06/04 21:25:23;;;;;;;7.47;4.40;;;18.20;99.40;;;;;;5071884;28;20235;-64
2022/06/04 21:27:51;;;;;;;37.73;7.90;;;18.20;99.50;;;;;;5065275;28;20692;-63
2022/06/04 21:30:19;;;;;;;32.87;7.60;;;18.20;99.50;;;;;;5053463;28;20299;-64
2022/06/04 21:32:46;;;;;;;11.17;5.77;;;18.30;99.50;;;;;;5053655;28;20213;-63
2022/06/04 21:38:01;;;;;;;12.40;4.30;;;18.30;99.40;;;;;;5064682;28;20191;-63
2022/06/04 21:40:30;;;;;;;10.77;5.03;;;18.30;99.60;;;;;;5073965;28;20237;-64
2022/06/04 21:42:58;;;;;;;18.03;5.13;;;18.20;99.70;;;;;;5055871;28;20203;-65
2022/06/04 21:45:28;;;;;;;7.70;4.30;;;18.20;99.70;;;;;;5053403;28;20257;-63
2022/06/04 21:47:58;;;;;;;6.33;4.10;;;18.20;99.70;;;;;;5053599;28;20220;-63
2022/06/04 21:50:27;;;;;;;6.77;4.30;;;18.20;99.90;;;;;;5052886;28;20208;-63
2022/06/04 21:52:54;;;;;;;6.60;4.53;;;18.20;99.90;;;;;;5053589;28;20242;-64
2022/06/04 21:55:21;;;;;;;14.70;5.33;;;18.20;99.90;;;;;;5053507;28;20251;-64
2022/06/04 21:57:48;;;;;;;9.37;4.77;;;18.10;99.80;;;;;;5052887;28;20217;-64
2022/06/04 22:01:03;;;;;;;11.60;4.83;;;18.10;99.90;;;;;;5052936;28;20628;-64